Terminal Aerodrome Forecast
Issued by NWS

Home | Current Version | Previous Version | Text Only | Print | Product List | Glossary Off
Versions: 1 2 3 4 5 6 7 8 9 10 11 12 13 14 15 16 17

994
FTUS43 KIWX 261524 AAA
TAFSBN
TAF AMD
KSBN 261524Z 2615/2712 31010KT 3SM BR OVC004
     FM261700 34010KT P6SM SCT006 BKN015
      TEMPO 2617/2619 BKN006
     FM262100 02012KT P6SM SCT020 BKN080
     FM270000 05010KT P6SM BKN080=

USA.gov is the U.S. government's official web portal to all federal, state and local government web resources and services.